Portada
METAR-TAF:

METAR-TAF

Aeroports :

Nàltxik, Rússia

latitud: 43-30-46N, longitud: 043-38-12E, altitud: 445 m

Observació

L'informe es va fer fa 51 minuts, a les 15:00 UTC
Vent calma
Temperatura 0°C
Humitat 100%
Pressió 1018 hPa
Visibilitat: 0800 m
boira gebradora

METAR: URMN 101500Z 00000MPS 0800 R24/1000 FZFG VV001 M00/M00 Q1018 R24/010070 NOSIG RMK QBB050 MT OBSC OBST OBSC QFE727

Hora: 19:51 (15:51 UTC)

Pronòstic

L'informe es va fer fa 30 minuts, a les 15:21 UTC
Pronòstic vàlid del 10 a les 15 UTC al 10 a les 24 UTC
Vent 6 kt del Est/Nord-Est
Visibilitat: 0400 m
Cel cobert a una alçada de 200 ft
boira gebradora
Temporalment
l' 10 a les 15 UTC al 10 a les 24 UTC
Visibilitat: 2100 m
Cel ennuvolat a una alçada de 400 ft
boirina

TAF: URMN 101521Z 1015/1024 06003MPS 0400 FZFG OVC002 TEMPO 1015/1024 2100 BR BKN004

Observacions i pronòstics meteorològics de més de 4000 aeroports (METAR i TAF).

Les estacions disponibles són els punts grocs i vermells al mapa.

Posi el ratolí al punt desitjat per veure el nom de l'estació.

Feu clic per veure les observacions i els pronòstics meteorològics.

Per canviar el mapa: feu clic els botons verds amb una creu de color negre per apropar; al botó verd amb un guió per allunyar la imatge; o en les fletxes verdes per a mapes adjacents.


METAR-TAF: